Hlavní strana
METAR-TAF:

METAR-TAF

Letiště :

Tulcea, Rumunsko

zeměpisná šířka: 45-11N, zeměpisná délka: 028-49E, výška: 4 m

Aktuální stav počasí

Zpráva byla vytvořena před 33 minutami, v 03:30 UTC
Severoseverovýchodní vítr 12 kt
Teplota 6°C
Vlhkost vzduchu 65%
Tlak 1025 hPa
Viditelnost 10 km a více

METAR: LRTC 050330Z AUTO 02012KT 9999 NCD 06/00 Q1025

Čas: 07:03 (04:03 UTC)

Předpověď počasí

Zpráva byla vytvořena před 2 hodinami a 3 minutami, v 02:00 UTC
Předpověď platná od 05 v 03 UTC do 05 v 12 UTC
vítr z různých směrů 4 kt
Viditelnost 10 km a více
Žádná oblačnost pod 1500 m, nevyskytují se cumulonimby.
Změna
od 05 v 04 UTC do 05 v 06 UTC
Severoseverovýchodní vítr 12 kt
Dočasný
od 05 v 09 UTC do 05 v 12 UTC
Severovýchodní vítr 18 kt s nárazy do 30 kt

TAF: LRTC 050200Z 0503/0512 VRB04KT CAVOK BECMG 0504/0506 03012KT TEMPO 0509/0512 05018G30KT

Stav a předpovědi počasí z více než 4 000 letišť (zprávy METAR a TAF).

Červené a žluté tečky na mapě představují dostupné meteorologické stanice.

Když kurzor umístíte na tečku, zobrazí se název stanice.

Pak kliknutím zobrazíte stav a předpověď počasí.

Chcete-li změnit mapu, kliknutím na zelené tlačítko se znaménkem +mapu přiblížíte, kliknutím na zelené tlačítko se znaménkem – mapu oddálíte a kliknutím na zelené šipky přejdete na sousední mapy.


METAR-TAF: